Time;durP1;ratioP1;P1;durP2;ratioP2;P2;SDS_P1;SDS_P2;PMS_P1;PMS_P2;Temp;Humidity;BMP_temperature;BMP_pressure;BME280_temperature;BME280_humidity;BME280_pressure;Samples;Min_cycle;Max_cycle;Signal;HPM_P1;HPM_P2
2022/07/29 00:00:45;;;;;;;1999.90;999.90;;;21.00;87.00;;;;;;5033947;28;20178;-67
2022/07/29 00:03:12;;;;;;;1999.90;999.90;;;21.00;87.60;;;;;;5033987;28;20238;-65
2022/07/29 00:05:41;;;;;;;1999.90;999.90;;;21.00;88.40;;;;;;5033277;28;20380;-66
2022/07/29 00:08:08;;;;;;;1999.90;999.90;;;21.00;88.60;;;;;;5033553;28;20407;-68
2022/07/29 00:10:34;;;;;;;1999.90;999.90;;;21.00;89.80;;;;;;5033613;28;20924;-67
2022/07/29 00:13:01;;;;;;;1999.90;999.90;;;21.00;90.00;;;;;;5033666;28;20467;-66
2022/07/29 00:15:26;;;;;;;1999.90;999.90;;;20.90;90.20;;;;;;5033539;28;20505;-67
2022/07/29 00:17:52;;;;;;;1999.90;999.90;;;20.90;90.40;;;;;;5033210;28;20519;-67
2022/07/29 00:20:18;;;;;;;1999.90;999.90;;;20.90;90.60;;;;;;5033454;28;20189;-67
2022/07/29 00:22:43;;;;;;;1999.90;999.90;;;20.80;90.70;;;;;;5033424;28;20179;-66
2022/07/29 00:25:09;;;;;;;1999.90;999.90;;;20.80;90.90;;;;;;5032892;28;20163;-66
2022/07/29 00:27:36;;;;;;;1999.90;999.90;;;20.70;91.20;;;;;;5031697;28;20205;-67
2022/07/29 00:30:03;;;;;;;1999.90;999.90;;;20.70;91.80;;;;;;5033304;28;20404;-66
2022/07/29 00:32:29;;;;;;;1999.90;999.90;;;20.60;92.20;;;;;;5033165;28;20374;-67
2022/07/29 00:37:38;;;;;;;1999.90;999.90;;;20.60;92.90;;;;;;5032735;28;20626;-67
2022/07/29 00:40:04;;;;;;;1999.90;999.90;;;20.60;93.40;;;;;;5033138;28;20414;-67
2022/07/29 00:42:30;;;;;;;1999.90;999.90;;;20.50;94.10;;;;;;5032974;28;20202;-66
2022/07/29 00:44:56;;;;;;;1999.90;999.90;;;20.60;94.50;;;;;;5032918;28;21008;-66
2022/07/29 00:47:21;;;;;;;1999.90;999.90;;;20.50;94.60;;;;;;5032571;28;20655;-66
2022/07/29 00:49:47;;;;;;;1999.90;999.90;;;20.50;94.80;;;;;;5032946;28;20169;-66
2022/07/29 00:52:13;;;;;;;1999.90;999.90;;;20.50;95.00;;;;;;5032947;28;20176;-67
2022/07/29 00:54:40;;;;;;;1999.90;999.90;;;20.40;95.40;;;;;;5032824;28;20254;-66
2022/07/29 00:57:07;;;;;;;1999.90;999.90;;;20.40;95.80;;;;;;5032271;28;20195;-66
2022/07/29 00:59:33;;;;;;;1999.90;999.90;;;20.40;95.90;;;;;;5032767;28;20390;-67
2022/07/29 01:01:59;;;;;;;1999.90;999.90;;;20.40;96.00;;;;;;5032618;28;20398;-67
2022/07/29 01:04:24;;;;;;;1999.90;999.90;;;20.40;96.40;;;;;;5032507;28;20461;-66
2022/07/29 01:06:51;;;;;;;1999.90;999.90;;;20.40;96.40;;;;;;5032420;28;20190;-66
2022/07/29 01:09:18;;;;;;;1999.90;999.90;;;20.40;96.90;;;;;;5032454;28;20172;-66
2022/07/29 01:11:47;;;;;;;1999.90;999.90;;;20.40;97.30;;;;;;5032309;28;20408;-67
2022/07/29 01:14:14;;;;;;;1999.90;999.90;;;20.40;97.60;;;;;;5032308;28;20415;-66
2022/07/29 01:17:01;;;;;;;1999.90;999.90;;;20.30;98.10;;;;;;5031939;28;20418;-66
2022/07/29 01:19:33;;;;;;;1999.90;999.90;;;20.30;98.70;;;;;;5032430;28;20505;-66
2022/07/29 01:22:02;;;;;;;1999.90;999.90;;;20.20;99.20;;;;;;5032226;28;20407;-66
2022/07/29 01:24:49;;;;;;;1999.90;999.90;;;20.20;99.80;;;;;;5032166;28;20898;-67
2022/07/29 01:27:47;;;;;;;1999.90;999.90;;;20.20;99.90;;;;;;5031846;28;20417;-67
2022/07/29 01:30:13;;;;;;;1999.90;999.90;;;20.20;99.90;;;;;;5031624;28;20826;-66
2022/07/29 01:32:40;;;;;;;1999.90;999.90;;;20.10;99.90;;;;;;5032174;28;20374;-66
2022/07/29 01:35:09;;;;;;;1999.90;999.90;;;20.00;99.90;;;;;;5032181;28;20875;-67
2022/07/29 01:37:49;;;;;;;1999.90;999.90;;;20.00;99.90;;;;;;5030882;28;20436;-67
2022/07/29 01:40:30;;;;;;;1999.90;999.90;;;19.90;99.90;;;;;;5032089;28;20895;-66
2022/07/29 01:42:59;;;;;;;1999.90;999.90;;;19.90;99.90;;;;;;5032059;28;20872;-67
2022/07/29 01:45:44;;;;;;;1999.90;999.90;;;19.90;99.90;;;;;;5031950;28;20838;-66
2022/07/29 01:48:30;;;;;;;1999.90;999.90;;;19.90;99.90;;;;;;5031328;28;20438;-66
2022/07/29 01:51:04;;;;;;;1999.90;999.90;;;19.90;99.90;;;;;;5031996;28;20400;-66
2022/07/29 01:53:43;;;;;;;1999.90;999.90;;;19.90;99.90;;;;;;5032009;28;20395;-66
2022/07/29 01:56:11;;;;;;;1999.90;999.90;;;19.80;99.90;;;;;;5031576;28;20935;-67
2022/07/29 01:58:40;;;;;;;1999.90;999.90;;;19.60;99.90;;;;;;5031866;28;20980;-67
2022/07/29 02:01:08;;;;;;;1999.90;999.90;;;19.40;99.90;;;;;;5031830;28;20947;-66
2022/07/29 02:03:36;;;;;;;1999.90;999.90;;;19.30;99.90;;;;;;5031799;28;20917;-66
2022/07/29 02:06:03;;;;;;;1999.90;999.90;;;19.20;99.90;;;;;;5031527;28;20513;-66
2022/07/29 02:08:30;;;;;;;1999.90;999.90;;;19.10;99.90;;;;;;5031759;28;20439;-66
2022/07/29 02:10:59;;;;;;;1999.90;999.90;;;19.10;99.90;;;;;;5031748;28;20411;-66
2022/07/29 02:13:27;;;;;;;1999.90;999.90;;;19.10;99.90;;;;;;5031758;28;20419;-66
2022/07/29 02:15:55;;;;;;;1999.90;999.90;;;19.10;99.90;;;;;;5031721;28;20825;-66
2022/07/29 02:18:23;;;;;;;1999.90;999.90;;;19.00;99.90;;;;;;5031637;28;20434;-67
2022/07/29 02:20:52;;;;;;;1999.90;999.90;;;19.00;99.90;;;;;;5031629;28;20420;-66
2022/07/29 02:23:21;;;;;;;1999.90;999.90;;;18.90;99.90;;;;;;5031597;28;20448;-66
2022/07/29 02:25:50;;;;;;;1999.90;999.90;;;18.80;99.90;;;;;;5031488;28;20779;-65
2022/07/29 02:28:18;;;;;;;1999.90;999.90;;;18.70;99.90;;;;;;5031519;28;20422;-66
2022/07/29 02:30:46;;;;;;;1999.90;999.90;;;18.70;99.90;;;;;;5031621;28;20409;-66
2022/07/29 02:33:15;;;;;;;1999.90;999.90;;;18.70;99.90;;;;;;5031482;28;20406;-66
2022/07/29 02:35:42;;;;;;;1999.90;999.90;;;18.60;99.90;;;;;;5031576;28;20963;-67
2022/07/29 02:40:58;;;;;;;1999.90;999.90;;;18.60;99.90;;;;;;5031805;28;20417;-66
2022/07/29 02:43:25;;;;;;;1999.90;999.90;;;18.60;99.90;;;;;;5031389;28;20451;-67
2022/07/29 02:45:54;;;;;;;1999.90;999.90;;;18.60;99.90;;;;;;5031285;28;20778;-66
2022/07/29 02:48:27;;;;;;;1999.90;999.90;;;18.60;99.90;;;;;;5031927;28;20757;-66
2022/07/29 02:51:01;;;;;;;1999.90;999.90;;;18.60;99.90;;;;;;5035239;28;20547;-67
2022/07/29 02:53:28;;;;;;;1999.90;999.90;;;18.50;99.90;;;;;;5035143;28;20824;-67
2022/07/29 02:56:01;;;;;;;1999.90;999.90;;;18.40;99.90;;;;;;5034951;28;20803;-66
2022/07/29 02:58:38;;;;;;;1999.90;999.90;;;18.20;99.90;;;;;;5035059;28;20505;-67
2022/07/29 03:01:08;;;;;;;1999.90;999.90;;;18.10;99.90;;;;;;5035239;28;20783;-65
2022/07/29 03:03:37;;;;;;;1999.90;999.90;;;17.90;99.90;;;;;;5035307;28;20450;-66
2022/07/29 03:06:03;;;;;;;1999.90;999.90;;;17.90;99.90;;;;;;5034552;28;20412;-66
2022/07/29 03:08:31;;;;;;;1999.90;999.90;;;17.90;99.90;;;;;;5034860;28;20919;-66
2022/07/29 03:10:57;;;;;;;1999.90;999.90;;;17.80;99.90;;;;;;5034765;28;20401;-66
2022/07/29 03:13:24;;;;;;;1999.90;999.90;;;17.70;99.90;;;;;;5034744;28;20451;-67
2022/07/29 03:15:50;;;;;;;1999.90;999.90;;;17.60;99.90;;;;;;5034581;28;20422;-66
2022/07/29 03:18:16;;;;;;;1999.90;999.90;;;17.60;99.90;;;;;;5034425;28;20423;-67
2022/07/29 03:20:42;;;;;;;1999.90;999.90;;;17.70;99.90;;;;;;5034659;28;20788;-67
2022/07/29 03:23:08;;;;;;;1999.90;999.90;;;17.70;99.90;;;;;;5034475;28;20193;-67
2022/07/29 03:25:34;;;;;;;1999.90;999.90;;;17.70;99.90;;;;;;5034489;28;20400;-66
2022/07/29 03:28:00;;;;;;;1999.90;999.90;;;17.70;99.90;;;;;;5034110;28;20448;-67
2022/07/29 03:30:26;;;;;;;1999.90;999.90;;;17.70;99.90;;;;;;5034503;28;20399;-67
2022/07/29 03:32:52;;;;;;;1999.90;999.90;;;17.80;99.90;;;;;;5034405;28;20648;-66
2022/07/29 03:35:19;;;;;;;1999.90;999.90;;;17.90;99.90;;;;;;5034401;28;20307;-66
2022/07/29 03:37:45;;;;;;;1999.90;999.90;;;17.90;99.90;;;;;;5033956;28;20916;-66
2022/07/29 03:40:14;;;;;;;1999.90;999.90;;;17.90;99.90;;;;;;5034271;28;20449;-65
2022/07/29 03:42:42;;;;;;;1999.90;999.90;;;17.90;99.90;;;;;;5034241;28;20244;-67
2022/07/29 03:45:12;;;;;;;1999.90;999.90;;;18.00;99.90;;;;;;5034192;28;20512;-66
2022/07/29 03:47:42;;;;;;;1999.90;999.90;;;18.00;99.90;;;;;;5033773;28;20434;-67
2022/07/29 03:50:11;;;;;;;1999.90;999.90;;;17.90;99.90;;;;;;5034144;28;20419;-67
2022/07/29 03:52:37;;;;;;;1999.90;999.90;;;17.90;99.90;;;;;;5033886;28;20407;-67
2022/07/29 03:55:04;;;;;;;1999.90;999.90;;;17.80;99.90;;;;;;5033994;28;20431;-66
2022/07/29 03:57:31;;;;;;;1999.90;999.90;;;17.90;99.90;;;;;;5033670;28;20463;-66
2022/07/29 03:59:57;;;;;;;1999.90;999.90;;;17.90;99.90;;;;;;5033183;28;20409;-66
2022/07/29 04:02:25;;;;;;;1999.90;999.90;;;17.90;99.90;;;;;;5033764;28;20405;-65
2022/07/29 04:04:51;;;;;;;1999.90;999.90;;;17.90;99.90;;;;;;5033787;28;20461;-66
2022/07/29 04:07:17;;;;;;;1999.90;999.90;;;17.80;99.90;;;;;;5033636;28;20420;-65
2022/07/29 04:09:43;;;;;;;1999.90;999.90;;;17.60;99.90;;;;;;5033784;28;20748;-65
2022/07/29 04:12:09;;;;;;;1999.90;999.90;;;17.60;99.90;;;;;;5033794;28;20187;-65
2022/07/29 04:14:35;;;;;;;1999.90;999.90;;;17.50;99.90;;;;;;5033793;28;20652;-66
2022/07/29 04:17:02;;;;;;;1999.90;999.90;;;17.40;99.90;;;;;;5033268;28;20427;-66
2022/07/29 04:19:28;;;;;;;1999.90;999.90;;;17.30;99.90;;;;;;5033543;28;20259;-67
2022/07/29 04:21:53;;;;;;;1999.90;999.90;;;17.20;99.90;;;;;;5033297;28;20466;-66
2022/07/29 04:24:19;;;;;;;1999.90;999.90;;;17.20;99.90;;;;;;5033431;28;20236;-66
2022/07/29 04:26:48;;;;;;;1999.90;999.90;;;17.20;99.90;;;;;;5032920;28;20205;-66
2022/07/29 04:29:14;;;;;;;1999.90;999.90;;;17.20;99.90;;;;;;5033334;28;20170;-67
2022/07/29 04:31:40;;;;;;;1999.90;999.90;;;17.20;99.90;;;;;;5033342;28;20409;-67
2022/07/29 04:34:06;;;;;;;1999.90;999.90;;;17.20;99.90;;;;;;5033220;28;20449;-66
2022/07/29 04:36:32;;;;;;;1999.90;999.90;;;17.20;99.90;;;;;;5032802;28;20425;-67
2022/07/29 04:38:58;;;;;;;1999.90;999.90;;;17.20;99.90;;;;;;5033172;28;20193;-66
2022/07/29 04:41:24;;;;;;;1999.90;999.90;;;17.30;99.90;;;;;;5033110;28;20172;-66
2022/07/29 04:43:49;;;;;;;1999.90;999.90;;;17.40;99.90;;;;;;5033044;28;20452;-66
2022/07/29 04:46:15;;;;;;;1999.90;999.90;;;17.40;99.90;;;;;;5032694;28;20224;-66
2022/07/29 04:48:41;;;;;;;1999.90;999.90;;;17.50;99.90;;;;;;5032869;28;20188;-66
2022/07/29 04:51:06;;;;;;;1999.90;999.90;;;17.50;99.90;;;;;;5032898;28;20465;-67
2022/07/29 04:53:32;;;;;;;1999.90;999.90;;;17.50;99.90;;;;;;5033085;28;20176;-66
2022/07/29 04:55:58;;;;;;;1999.90;999.90;;;17.50;99.90;;;;;;5032528;28;20175;-66
2022/07/29 04:58:24;;;;;;;1999.90;999.90;;;17.50;99.90;;;;;;5032963;28;20970;-66
2022/07/29 05:00:50;;;;;;;1999.90;999.90;;;17.40;99.90;;;;;;5032565;28;20218;-66
2022/07/29 05:03:16;;;;;;;1999.90;999.90;;;17.50;99.90;;;;;;5032385;28;20787;-66
2022/07/29 05:05:42;;;;;;;1999.90;999.90;;;17.60;99.90;;;;;;5032500;28;20514;-66
2022/07/29 05:08:08;;;;;;;1999.90;999.90;;;17.60;99.90;;;;;;5032222;28;20420;-66
2022/07/29 05:10:37;;;;;;;1999.90;999.90;;;17.80;99.90;;;;;;5032560;28;20164;-67
2022/07/29 05:13:07;;;;;;;1999.90;999.90;;;17.80;99.90;;;;;;5032258;28;20225;-67
2022/07/29 05:15:33;;;;;;;1999.90;999.90;;;17.80;99.90;;;;;;5032542;28;20409;-66
2022/07/29 05:18:00;;;;;;;1999.90;999.90;;;17.80;99.90;;;;;;5032060;28;20781;-66
2022/07/29 05:20:28;;;;;;;1999.90;999.90;;;17.90;99.90;;;;;;5032502;28;20399;-67
2022/07/29 05:22:57;;;;;;;1999.90;999.90;;;18.10;99.90;;;;;;5032268;28;20381;-67
2022/07/29 05:25:24;;;;;;;1999.90;999.90;;;18.10;99.90;;;;;;5032482;28;20407;-67
2022/07/29 05:27:49;;;;;;;1999.90;999.90;;;18.10;99.90;;;;;;5031859;28;20484;-67
2022/07/29 05:30:15;;;;;;;1999.90;999.90;;;18.30;99.90;;;;;;5032283;28;20440;-66
2022/07/29 05:32:41;;;;;;;1999.90;999.90;;;18.20;99.90;;;;;;5032255;28;20661;-66
2022/07/29 05:35:07;;;;;;;1999.90;999.90;;;18.20;99.90;;;;;;5032248;28;20184;-66
2022/07/29 05:37:33;;;;;;;1999.90;999.90;;;18.30;99.90;;;;;;5031983;28;20191;-67
2022/07/29 05:39:59;;;;;;;1999.90;999.90;;;18.30;99.90;;;;;;5032106;28;20400;-66
2022/07/29 05:42:25;;;;;;;1999.90;999.90;;;18.40;99.90;;;;;;5032126;28;20225;-65
2022/07/29 05:44:51;;;;;;;1999.90;999.90;;;18.30;99.90;;;;;;5031940;28;20197;-66
2022/07/29 05:47:17;;;;;;;1999.90;999.90;;;18.20;99.90;;;;;;5031614;28;20435;-66
2022/07/29 05:49:42;;;;;;;1999.90;999.90;;;18.20;99.90;;;;;;5031945;28;20637;-67
2022/07/29 05:52:08;;;;;;;1999.90;999.90;;;18.10;99.90;;;;;;5031944;28;20176;-66
2022/07/29 05:54:35;;;;;;;1999.90;999.90;;;18.10;99.90;;;;;;5031959;28;20667;-66
2022/07/29 05:57:01;;;;;;;1999.90;999.90;;;18.10;99.90;;;;;;5031599;28;20422;-66
2022/07/29 05:59:26;;;;;;;1999.90;999.90;;;18.10;99.90;;;;;;5031820;28;20428;-67
2022/07/29 06:01:52;;;;;;;1999.90;999.90;;;18.20;99.90;;;;;;5031831;28;20425;-67
2022/07/29 06:04:18;;;;;;;1999.90;999.90;;;18.20;99.90;;;;;;5031734;28;20246;-67
2022/07/29 06:06:44;;;;;;;1999.90;999.90;;;18.20;99.90;;;;;;5031434;28;20240;-66
2022/07/29 06:09:10;;;;;;;1999.90;999.90;;;18.30;99.90;;;;;;5031807;28;20424;-67
2022/07/29 06:11:35;;;;;;;1999.90;999.90;;;18.30;99.90;;;;;;5031787;28;20162;-67
2022/07/29 06:14:02;;;;;;;1999.90;999.90;;;18.30;99.90;;;;;;5031782;28;20576;-66
2022/07/29 06:16:28;;;;;;;1999.90;999.90;;;18.30;99.90;;;;;;5031306;28;20197;-66
2022/07/29 06:18:54;;;;;;;1999.90;999.90;;;18.30;99.90;;;;;;5031639;28;20416;-66
2022/07/29 06:21:19;;;;;;;1999.90;999.90;;;18.30;99.90;;;;;;5031899;28;20180;-66
2022/07/29 06:23:45;;;;;;;1999.90;999.90;;;18.20;99.90;;;;;;5032654;28;20192;-67
2022/07/29 06:26:11;;;;;;;1999.90;999.90;;;18.30;99.90;;;;;;5035207;28;20182;-67
2022/07/29 06:28:36;;;;;;;1999.90;999.90;;;18.20;99.90;;;;;;5035661;28;20166;-67
2022/07/29 06:31:02;;;;;;;1999.90;999.90;;;18.20;99.90;;;;;;5035504;28;20411;-67
2022/07/29 06:33:28;;;;;;;1999.90;999.90;;;18.20;99.90;;;;;;5035503;28;20172;-67
2022/07/29 06:35:54;;;;;;;1999.90;999.90;;;18.20;99.90;;;;;;5035330;28;20175;-66
2022/07/29 06:38:20;;;;;;;1999.90;999.90;;;18.20;99.90;;;;;;5035125;28;20194;-66
2022/07/29 06:41:19;;;;;;;1999.90;999.90;;;18.20;99.90;;;;;;5035366;28;20898;-67
2022/07/29 06:43:43;;;;;;;1999.90;999.90;;;18.20;99.90;;;;;;5032130;28;20814;-66
2022/07/29 06:46:14;;;;;;;1999.90;999.90;;;18.20;99.90;;;;;;5035144;28;20433;-66
2022/07/29 06:48:42;;;;;;;1999.90;999.90;;;18.20;99.90;;;;;;5035230;28;20398;-66
2022/07/29 06:51:08;;;;;;;1999.90;999.90;;;18.20;99.90;;;;;;5035095;28;20497;-65
2022/07/29 06:53:35;;;;;;;1999.90;999.90;;;18.10;99.90;;;;;;5035131;28;20773;-66
2022/07/29 06:56:02;;;;;;;1999.90;999.90;;;18.10;99.90;;;;;;5034642;28;20391;-66
2022/07/29 06:58:28;;;;;;;1999.90;999.90;;;18.10;99.90;;;;;;5035320;28;20906;-65
2022/07/29 07:00:55;;;;;;;1999.90;999.90;;;18.00;99.90;;;;;;5034955;28;20820;-67
2022/07/29 07:03:22;;;;;;;1999.90;999.90;;;18.10;99.90;;;;;;5034801;28;20452;-65
2022/07/29 07:05:48;;;;;;;1999.90;999.90;;;18.10;99.90;;;;;;5034939;28;20466;-66
2022/07/29 07:08:15;;;;;;;1999.90;999.90;;;18.10;99.90;;;;;;5034473;28;20450;-65
2022/07/29 07:10:41;;;;;;;1999.90;999.90;;;18.10;99.90;;;;;;5034779;28;20414;-65
2022/07/29 07:13:07;;;;;;;1999.90;999.90;;;18.10;99.90;;;;;;5034749;28;20412;-65
2022/07/29 07:15:33;;;;;;;1999.90;999.90;;;18.10;99.90;;;;;;5034946;28;20757;-66
2022/07/29 07:17:59;;;;;;;1999.90;999.90;;;18.20;99.90;;;;;;5034138;28;20254;-66
2022/07/29 07:20:25;;;;;;;1999.90;999.90;;;18.30;99.90;;;;;;5034688;28;20181;-66
2022/07/29 07:22:50;;;;;;;1999.90;999.90;;;18.40;99.90;;;;;;5034322;28;20773;-67
2022/07/29 07:25:17;;;;;;;1999.90;999.90;;;18.40;99.90;;;;;;5034268;28;20374;-65
2022/07/29 07:27:45;;;;;;;1999.90;999.90;;;18.20;99.90;;;;;;5033901;28;20204;-66
2022/07/29 07:30:12;;;;;;;1999.90;999.90;;;18.20;99.90;;;;;;5034499;28;20413;-66
2022/07/29 07:32:37;;;;;;;1999.90;999.90;;;18.30;99.90;;;;;;5034217;28;20905;-67
2022/07/29 07:35:05;;;;;;;1999.90;999.90;;;18.40;99.90;;;;;;5033092;28;20384;-66
2022/07/29 07:37:31;;;;;;;1999.90;999.90;;;18.30;99.90;;;;;;5033981;28;20663;-67
2022/07/29 07:39:57;;;;;;;1999.90;999.90;;;18.50;99.90;;;;;;5034207;28;20464;-66
2022/07/29 07:42:23;;;;;;;1999.90;999.90;;;18.60;99.90;;;;;;5034138;28;20684;-67
2022/07/29 07:44:49;;;;;;;1999.90;999.90;;;18.60;99.90;;;;;;5033984;28;20461;-67
2022/07/29 07:47:19;;;;;;;1999.90;999.90;;;18.70;99.90;;;;;;5033730;28;20240;-67
2022/07/29 07:49:48;;;;;;;1999.90;999.90;;;18.70;99.90;;;;;;5034086;28;20557;-67
2022/07/29 07:52:15;;;;;;;1999.90;999.90;;;18.70;99.90;;;;;;5033938;28;20787;-67
2022/07/29 07:54:42;;;;;;;1999.90;999.90;;;18.90;99.90;;;;;;5034039;28;20856;-67
2022/07/29 07:57:08;;;;;;;1999.90;999.90;;;19.10;99.90;;;;;;5033486;28;20429;-67
2022/07/29 07:59:34;;;;;;;1999.90;999.90;;;19.20;99.90;;;;;;5033909;28;20382;-67
2022/07/29 08:02:00;;;;;;;1999.90;999.90;;;19.30;99.90;;;;;;5033794;28;20499;-66
2022/07/29 08:04:26;;;;;;;1999.90;999.90;;;19.40;99.90;;;;;;5033759;28;20188;-67
2022/07/29 08:06:54;;;;;;;1999.90;999.90;;;19.50;99.90;;;;;;5033453;28;20433;-66
2022/07/29 08:09:20;;;;;;;1999.90;999.90;;;19.60;99.90;;;;;;5033746;28;20211;-66
2022/07/29 08:11:45;;;;;;;1999.90;999.90;;;19.70;99.90;;;;;;5033712;28;20404;-66
2022/07/29 08:14:11;;;;;;;1999.90;999.90;;;19.70;99.90;;;;;;5033697;28;20384;-68
2022/07/29 08:16:37;;;;;;;1999.90;999.90;;;19.80;99.90;;;;;;5033263;28;20275;-67
2022/07/29 08:19:02;;;;;;;1999.90;999.90;;;19.70;99.90;;;;;;5033618;28;20173;-67
2022/07/29 08:21:28;;;;;;;1999.90;999.90;;;19.80;99.90;;;;;;5033658;28;20169;-65
2022/07/29 08:24:42;;;;;;;1999.90;999.90;;;19.90;99.90;;;;;;5033463;28;20276;-67
2022/07/29 08:26:43;;;;;;;1999.90;999.90;;;19.90;99.90;;;;;;5032951;28;20717;-67
2022/07/29 08:29:09;;;;;;;1999.90;999.90;;;19.90;99.90;;;;;;5033383;28;20374;-67
2022/07/29 08:31:36;;;;;;;1999.90;999.90;;;19.80;99.90;;;;;;5033305;28;20396;-67
2022/07/29 08:34:03;;;;;;;1999.90;999.90;;;19.60;99.90;;;;;;5033242;28;20395;-66
2022/07/29 08:36:29;;;;;;;1999.90;999.90;;;19.60;99.90;;;;;;5032902;28;20423;-66
2022/07/29 08:38:55;;;;;;;1999.90;999.90;;;19.50;99.90;;;;;;5033291;28;20410;-67
2022/07/29 08:41:21;;;;;;;1999.90;999.90;;;19.60;99.90;;;;;;5033101;28;20428;-67
2022/07/29 08:43:48;;;;;;;1999.90;999.90;;;19.50;99.90;;;;;;5033042;28;20191;-66
2022/07/29 08:46:14;;;;;;;1999.90;999.90;;;19.50;99.90;;;;;;5032364;28;20388;-67
2022/07/29 08:48:41;;;;;;;1999.90;999.90;;;19.40;99.90;;;;;;5033106;28;20378;-68
2022/07/29 08:51:07;;;;;;;1999.90;999.90;;;19.50;99.90;;;;;;5033097;28;20173;-66
2022/07/29 08:53:33;;;;;;;1999.90;999.90;;;19.60;99.90;;;;;;5032938;28;20378;-65
2022/07/29 08:56:00;;;;;;;1999.90;999.90;;;19.80;99.90;;;;;;5032569;28;20433;-66
2022/07/29 08:58:31;;;;;;;1999.90;999.90;;;19.90;99.90;;;;;;5032796;28;20385;-66
2022/07/29 09:00:56;;;;;;;1999.90;999.90;;;19.90;99.90;;;;;;5032829;28;20379;-65
2022/07/29 09:03:31;;;;;;;1999.90;999.90;;;20.00;99.90;;;;;;5033112;28;20455;-67
2022/07/29 09:05:58;;;;;;;1999.90;999.90;;;20.10;99.90;;;;;;5032441;28;20382;-65
2022/07/29 09:08:24;;;;;;;1999.90;999.90;;;20.20;99.90;;;;;;5033290;28;20413;-67
2022/07/29 09:10:51;;;;;;;1999.90;999.90;;;20.40;99.90;;;;;;5032656;28;20382;-66
2022/07/29 09:13:17;;;;;;;1999.90;999.90;;;20.70;99.90;;;;;;5032447;28;20775;-67
2022/07/29 09:15:43;;;;;;;1999.90;999.90;;;20.90;99.90;;;;;;5032454;28;20380;-67
2022/07/29 09:18:09;;;;;;;1999.90;999.90;;;21.00;99.90;;;;;;5032198;28;20486;-67
2022/07/29 09:23:19;;;;;;;1999.90;999.90;;;21.00;99.90;;;;;;5032428;28;20243;-65
2022/07/29 09:25:46;;;;;;;1999.90;999.90;;;21.00;99.90;;;;;;5032194;28;20933;-66
2022/07/29 09:28:16;;;;;;;1999.90;999.90;;;21.10;99.90;;;;;;5031979;28;20461;-65
2022/07/29 09:30:56;;;;;;;1999.90;999.90;;;21.30;99.90;;;;;;5032492;28;20193;-66
2022/07/29 09:33:22;;;;;;;1999.90;999.90;;;21.30;99.90;;;;;;5032276;28;20444;-67
2022/07/29 09:36:06;;;;;;;1999.90;999.90;;;21.30;99.90;;;;;;5032184;28;20733;-67
2022/07/29 09:38:33;;;;;;;1999.90;999.90;;;21.30;99.90;;;;;;5029821;28;20400;-65
2022/07/29 09:41:00;;;;;;;1999.90;999.90;;;21.30;99.90;;;;;;5031492;28;20396;-64
2022/07/29 09:43:26;;;;;;;1999.90;999.90;;;21.30;99.90;;;;;;5031513;28;20828;-66
2022/07/29 09:45:52;;;;;;;1999.90;999.90;;;21.20;99.90;;;;;;5031674;28;20927;-66
2022/07/29 09:48:20;;;;;;;1999.90;999.90;;;21.20;99.90;;;;;;5031295;28;20431;-67
2022/07/29 09:50:49;;;;;;;1999.90;999.90;;;21.30;99.90;;;;;;5031959;28;20867;-69
2022/07/29 09:53:33;;;;;;;1999.90;999.90;;;21.40;99.90;;;;;;5031381;28;20413;-67
2022/07/29 09:55:59;;;;;;;1999.90;999.90;;;21.50;99.90;;;;;;5029467;28;20441;-63
2022/07/29 09:58:25;;;;;;;1999.90;999.90;;;21.50;99.90;;;;;;5030513;28;20388;-67
2022/07/29 10:00:53;;;;;;;1999.90;999.90;;;21.60;99.90;;;;;;5031347;28;20851;-66
2022/07/29 10:03:18;;;;;;;1999.90;999.90;;;21.80;99.90;;;;;;5032855;28;20426;-67
2022/07/29 10:05:45;;;;;;;1999.90;999.90;;;21.80;99.90;;;;;;5031649;28;20433;-67
2022/07/29 10:08:12;;;;;;;1999.90;999.90;;;21.80;99.90;;;;;;5032073;28;20206;-67
2022/07/29 10:10:40;;;;;;;1999.90;999.90;;;21.80;99.90;;;;;;5031375;28;20392;-67
2022/07/29 10:13:14;;;;;;;1999.90;999.90;;;21.90;99.90;;;;;;5031339;28;20538;-67
2022/07/29 10:15:44;;;;;;;1999.90;999.90;;;21.90;99.90;;;;;;5030523;28;20421;-67
2022/07/29 10:18:16;;;;;;;1999.90;999.90;;;22.10;99.90;;;;;;5030748;28;20405;-68
2022/07/29 10:20:42;;;;;;;1999.90;999.90;;;22.10;99.90;;;;;;5031561;28;20384;-68
2022/07/29 10:23:09;;;;;;;1999.90;999.90;;;22.30;99.90;;;;;;5031164;28;20400;-67
2022/07/29 10:25:34;;;;;;;1999.90;999.90;;;22.30;99.90;;;;;;5030855;28;20633;-65
2022/07/29 10:28:00;;;;;;;1999.90;999.90;;;22.30;99.90;;;;;;5030513;28;20449;-65
2022/07/29 10:30:26;;;;;;;1999.90;999.90;;;22.40;99.90;;;;;;5030920;28;20633;-65
2022/07/29 10:33:30;;;;;;;1999.90;999.90;;;22.60;99.90;;;;;;5030429;28;20176;-65
2022/07/29 10:36:24;;;;;;;1999.90;999.90;;;22.90;99.90;;;;;;5030776;28;20988;-66
2022/07/29 10:39:15;;;;;;;1999.90;999.90;;;23.30;99.90;;;;;;5030292;28;20512;-65
2022/07/29 10:42:00;;;;;;;1999.90;999.90;;;23.20;99.90;;;;;;5030949;28;20756;-65
2022/07/29 10:44:27;;;;;;;1999.90;999.90;;;22.90;99.90;;;;;;5030783;28;20427;-65
2022/07/29 10:46:53;;;;;;;1999.90;999.90;;;22.80;99.90;;;;;;5030159;28;20407;-65
2022/07/29 10:49:26;;;;;;;1999.90;999.90;;;22.90;99.90;;;;;;5030761;28;20410;-65
2022/07/29 10:52:24;;;;;;;1999.90;999.90;;;22.80;99.90;;;;;;5030681;28;20937;-65
2022/07/29 10:54:51;;;;;;;1999.90;999.90;;;23.00;99.90;;;;;;5021359;28;20404;-67
2022/07/29 10:57:31;;;;;;;1999.90;999.90;;;23.30;99.90;;;;;;5030360;28;20456;-66
2022/07/29 11:00:09;;;;;;;1999.90;999.90;;;23.70;99.90;;;;;;5030670;28;20381;-66
2022/07/29 11:02:39;;;;;;;1999.90;999.90;;;24.00;99.90;;;;;;5030355;28;20796;-67
2022/07/29 11:05:08;;;;;;;1999.90;999.90;;;24.30;99.90;;;;;;5030741;28;20766;-67
2022/07/29 11:07:35;;;;;;;1999.90;999.90;;;24.50;99.90;;;;;;5030238;28;20445;-67
2022/07/29 11:10:12;;;;;;;1999.90;999.90;;;24.70;99.90;;;;;;5031396;28;20472;-66
2022/07/29 11:12:38;;;;;;;1999.90;999.90;;;25.00;99.90;;;;;;5034089;28;20399;-66
2022/07/29 11:15:18;;;;;;;1999.90;999.90;;;25.30;99.90;;;;;;5034098;28;20426;-66
2022/07/29 11:17:53;;;;;;;1999.90;999.90;;;25.10;99.90;;;;;;5033436;28;20216;-67
2022/07/29 11:20:36;;;;;;;1999.90;999.90;;;24.80;99.90;;;;;;5033940;28;20415;-67
2022/07/29 11:23:17;;;;;;;1999.90;999.90;;;24.90;99.90;;;;;;5033791;28;20493;-67
2022/07/29 11:25:42;;;;;;;1999.90;999.90;;;25.20;99.90;;;;;;5033961;28;20385;-67
2022/07/29 11:28:15;;;;;;;1999.90;999.90;;;25.60;99.90;;;;;;5033472;28;20792;-67
2022/07/29 11:30:52;;;;;;;1999.90;999.90;;;25.90;99.90;;;;;;5033555;28;20174;-66
2022/07/29 11:33:34;;;;;;;1999.90;999.90;;;26.30;98.10;;;;;;5033805;28;20407;-67
2022/07/29 11:36:09;;;;;;;1999.90;999.90;;;26.60;96.70;;;;;;5033662;28;20407;-67
2022/07/29 11:38:34;;;;;;;1999.90;999.90;;;26.90;95.20;;;;;;5033394;28;20433;-66
2022/07/29 11:41:24;;;;;;;1999.90;999.90;;;26.80;93.60;;;;;;5033665;28;20403;-67
2022/07/29 11:43:54;;;;;;;1999.90;999.90;;;26.50;92.10;;;;;;5028206;28;20243;-67
2022/07/29 11:46:49;;;;;;;1999.90;999.90;;;26.00;92.10;;;;;;5032918;28;20434;-67
2022/07/29 11:49:22;;;;;;;1999.90;999.90;;;26.10;94.50;;;;;;5033521;28;20473;-67
2022/07/29 11:51:55;;;;;;;1999.90;999.90;;;26.50;92.90;;;;;;5033447;28;20434;-67
2022/07/29 11:54:34;;;;;;;1999.90;999.90;;;26.50;89.60;;;;;;5032923;28;20377;-66
2022/07/29 11:57:00;;;;;;;1999.90;999.90;;;26.20;90.00;;;;;;5033024;28;20437;-67
2022/07/29 11:59:27;;;;;;;1999.90;999.90;;;26.00;90.30;;;;;;5033400;28;20415;-67
2022/07/29 12:01:59;;;;;;;1999.90;999.90;;;25.90;91.90;;;;;;5033072;28;20314;-66
2022/07/29 12:04:26;;;;;;;1999.90;999.90;;;25.90;91.10;;;;;;5033027;28;20478;-66
2022/07/29 12:06:53;;;;;;;1999.90;999.90;;;26.40;87.90;;;;;;5032867;28;20427;-65
2022/07/29 12:09:20;;;;;;;1999.90;999.90;;;26.80;86.90;;;;;;5033016;28;20406;-66
2022/07/29 12:11:47;;;;;;;1999.90;999.90;;;27.30;88.20;;;;;;5033110;28;20427;-67
2022/07/29 12:14:29;;;;;;;1999.90;999.90;;;27.60;86.60;;;;;;5033240;28;20820;-67